createdAt,value
2023-01-05T00:01:36.195Z,78.69
2023-01-05T00:04:09.414Z,78.69
2023-01-05T00:06:43.233Z,78.44
2023-01-05T00:09:18.195Z,78.02
2023-01-05T00:12:08.795Z,78.50
2023-01-05T00:14:59.445Z,78.58
2023-01-05T00:17:51.607Z,79.10
2023-01-05T00:20:42.198Z,78.40
2023-01-05T00:23:22.549Z,79.38
2023-01-05T00:25:55.331Z,78.32
2023-01-05T00:28:28.338Z,78.74
2023-01-05T00:31:02.392Z,79.46
2023-01-05T00:33:39.583Z,79.14
2023-01-05T00:36:13.834Z,79.31
2023-01-05T00:38:55.379Z,78.70
2023-01-05T00:41:28.521Z,78.76
2023-01-05T00:44:03.588Z,78.44
2023-01-05T00:46:38.975Z,78.62
2023-01-05T00:49:13.517Z,79.11
2023-01-05T00:51:46.615Z,78.66
2023-01-05T00:54:19.654Z,79.33
2023-01-05T00:56:55.507Z,78.90
2023-01-05T00:59:31.688Z,78.71
2023-01-05T01:02:05.552Z,78.52
2023-01-05T01:04:40.580Z,78.56
2023-01-05T01:07:13.745Z,78.33
2023-01-05T01:09:46.958Z,78.36
2023-01-05T01:12:20.092Z,79.03
2023-01-05T01:14:53.241Z,78.34
2023-01-05T01:17:28.269Z,78.38
2023-01-05T01:20:05.289Z,79.09
2023-01-05T01:22:39.541Z,78.68
2023-01-05T01:25:17.584Z,78.60
2023-01-05T01:27:53.170Z,78.59
2023-01-05T01:30:26.188Z,79.03
2023-01-05T01:32:59.965Z,78.42
2023-01-05T01:35:34.268Z,78.92
2023-01-05T01:38:07.180Z,78.17
2023-01-05T01:40:40.979Z,78.68
2023-01-05T01:43:14.613Z,78.60
2023-01-05T01:45:48.337Z,78.67
2023-01-05T01:48:21.675Z,78.54
2023-01-05T01:50:58.495Z,78.39
2023-01-05T01:53:38.805Z,78.57
2023-01-05T01:56:17.319Z,78.32
2023-01-05T01:58:51.512Z,78.58
2023-01-05T02:01:25.780Z,78.51
2023-01-05T02:04:03.871Z,78.25
2023-01-05T02:06:39.239Z,78.77
2023-01-05T02:09:12.529Z,78.16
2023-01-05T02:11:55.502Z,78.45
2023-01-05T02:14:38.295Z,77.82
2023-01-05T02:17:20.227Z,78.44
2023-01-05T02:20:27.466Z,78.85
2023-01-05T02:23:39.906Z,78.78
2023-01-05T02:26:57.721Z,78.11
2023-01-05T02:29:58.210Z,78.20
2023-01-05T02:32:39.041Z,77.89
2023-01-05T02:35:19.838Z,78.14
2023-01-05T02:38:01.661Z,78.22
2023-01-05T02:40:40.633Z,77.99
2023-01-05T02:43:16.499Z,78.01
2023-01-05T02:45:51.082Z,78.15
2023-01-05T02:48:25.901Z,78.23
2023-01-05T02:51:04.987Z,77.73
2023-01-05T02:53:42.570Z,78.25
2023-01-05T02:56:21.954Z,78.21
2023-01-05T02:59:01.177Z,78.60
2023-01-05T03:01:38.882Z,78.41
2023-01-05T03:04:18.802Z,78.17
2023-01-05T03:06:56.831Z,78.09
2023-01-05T03:09:36.829Z,78.11
2023-01-05T03:12:37.744Z,77.70
2023-01-05T03:15:21.078Z,77.66
2023-01-05T03:17:59.441Z,77.72
2023-01-05T03:20:35.766Z,78.06
2023-01-05T03:23:30.282Z,78.14
2023-01-05T03:26:21.301Z,78.05
2023-01-05T03:29:16.259Z,77.86
2023-01-05T03:32:15.919Z,78.10
2023-01-05T03:35:12.050Z,78.56
2023-01-05T03:37:57.413Z,78.46
2023-01-05T03:40:33.397Z,78.04
2023-01-05T03:43:08.616Z,77.89
2023-01-05T03:45:44.977Z,78.23
2023-01-05T03:48:27.012Z,77.83
2023-01-05T03:51:01.132Z,78.14
2023-01-05T03:53:36.745Z,78.28
2023-01-05T03:56:11.481Z,78.01
2023-01-05T03:58:44.404Z,78.13
2023-01-05T04:01:17.402Z,78.41
2023-01-05T04:03:51.844Z,78.24
2023-01-05T04:06:25.211Z,78.10
2023-01-05T04:09:07.129Z,77.76
2023-01-05T04:11:41.127Z,77.99
2023-01-05T04:14:14.838Z,77.93
2023-01-05T04:16:48.316Z,78.14
2023-01-05T04:19:27.976Z,77.97
2023-01-05T04:22:02.401Z,78.15
2023-01-05T04:24:38.510Z,78.11
2023-01-05T04:27:11.731Z,78.25
2023-01-05T04:29:45.710Z,77.94
2023-01-05T04:32:19.305Z,78.19
2023-01-05T04:34:52.699Z,78.10
2023-01-05T04:37:27.564Z,77.69
2023-01-05T04:40:02.718Z,77.62
2023-01-05T04:42:37.442Z,77.55
2023-01-05T04:45:12.725Z,77.28
2023-01-05T04:47:49.320Z,77.14
2023-01-05T04:50:25.356Z,77.72
2023-01-05T04:53:00.770Z,77.19
2023-01-05T04:55:36.818Z,77.57
2023-01-05T04:58:12.072Z,77.27
2023-01-05T05:00:46.811Z,77.41
2023-01-05T05:03:21.297Z,76.99
2023-01-05T05:05:56.864Z,77.22
2023-01-05T05:08:32.220Z,77.36
2023-01-05T05:11:08.233Z,77.19
2023-01-05T05:13:44.274Z,76.96
2023-01-05T05:16:17.696Z,77.64
2023-01-05T05:18:52.794Z,77.18
2023-01-05T05:21:32.587Z,77.14
2023-01-05T05:24:08.828Z,77.39
2023-01-05T05:26:46.834Z,76.96
2023-01-05T05:29:19.970Z,77.35
2023-01-05T05:31:53.550Z,77.33
2023-01-05T05:34:27.933Z,77.04
2023-01-05T05:37:01.386Z,77.04
2023-01-05T05:39:36.279Z,77.03
2023-01-05T05:42:10.951Z,77.02
2023-01-05T05:44:44.364Z,76.51
2023-01-05T05:47:19.524Z,77.35
2023-01-05T05:49:53.034Z,76.96
2023-01-05T05:52:27.911Z,77.38
2023-01-05T05:55:00.744Z,77.71
2023-01-05T05:57:35.033Z,77.24
2023-01-05T06:00:09.036Z,77.44
2023-01-05T06:02:48.826Z,77.40
2023-01-05T06:05:21.787Z,77.14
2023-01-05T06:07:54.560Z,76.81
2023-01-05T06:10:27.606Z,77.10
2023-01-05T06:13:01.579Z,76.94
2023-01-05T06:15:34.586Z,76.77
2023-01-05T06:18:07.570Z,77.20
2023-01-05T06:20:40.517Z,77.18
2023-01-05T06:23:14.653Z,77.46
2023-01-05T06:25:47.786Z,77.07
2023-01-05T06:28:22.173Z,77.04
2023-01-05T06:30:55.093Z,76.88
2023-01-05T06:33:28.342Z,77.39
2023-01-05T06:36:01.403Z,76.94
2023-01-05T06:38:34.423Z,77.35
2023-01-05T06:41:09.411Z,77.22
2023-01-05T06:43:43.990Z,77.39
2023-01-05T06:46:17.182Z,77.58
2023-01-05T06:48:51.292Z,76.88
2023-01-05T06:51:25.467Z,76.79
2023-01-05T06:53:58.558Z,76.76
2023-01-05T06:56:31.532Z,77.09
2023-01-05T06:59:06.057Z,77.33
2023-01-05T07:01:39.180Z,77.60
2023-01-05T07:04:12.433Z,77.41
2023-01-05T07:06:45.293Z,77.07
2023-01-05T07:09:18.666Z,77.02
2023-01-05T07:11:51.640Z,77.20
2023-01-05T07:14:25.638Z,77.02
2023-01-05T07:17:00.585Z,77.18
2023-01-05T07:19:33.823Z,77.41
2023-01-05T07:22:06.881Z,77.08
2023-01-05T07:24:39.545Z,76.68
2023-01-05T07:27:12.887Z,76.96
2023-01-05T07:29:47.426Z,76.88
2023-01-05T07:32:23.273Z,76.91
2023-01-05T07:34:57.662Z,77.65
2023-01-05T07:37:31.115Z,77.52
2023-01-05T07:40:04.033Z,77.48
2023-01-05T07:42:36.814Z,77.31
2023-01-05T07:45:16.959Z,77.08
2023-01-05T07:47:50.163Z,77.36
2023-01-05T07:50:23.713Z,76.95
2023-01-05T07:52:56.662Z,77.37
2023-01-05T07:55:29.377Z,77.45
2023-01-05T07:58:02.437Z,77.26
2023-01-05T08:00:36.408Z,77.11
2023-01-05T08:03:09.225Z,77.17
2023-01-05T08:05:42.015Z,77.21
2023-01-05T08:08:22.307Z,77.33
2023-01-05T08:10:57.234Z,77.23
2023-01-05T08:13:47.553Z,77.50
2023-01-05T08:16:22.295Z,77.54
2023-01-05T08:18:55.383Z,77.26
2023-01-05T08:21:28.664Z,77.22
2023-01-05T08:24:01.427Z,77.59
2023-01-05T08:26:34.439Z,77.09
2023-01-05T08:29:07.149Z,77.31
2023-01-05T08:31:41.319Z,77.11
2023-01-05T08:34:15.254Z,77.76
2023-01-05T08:36:47.956Z,77.66
2023-01-05T08:39:20.715Z,77.22
2023-01-05T08:41:57.413Z,76.88
2023-01-05T08:44:33.288Z,76.83
2023-01-05T08:47:07.304Z,76.75
2023-01-05T08:49:40.150Z,76.88
2023-01-05T08:52:12.973Z,76.84
2023-01-05T08:54:45.702Z,76.70
2023-01-05T08:57:18.535Z,77.31
2023-01-05T08:59:51.314Z,77.22
2023-01-05T09:02:26.225Z,77.36
2023-01-05T09:04:59.441Z,76.70
2023-01-05T09:07:31.993Z,77.16
2023-01-05T09:10:05.286Z,76.87
2023-01-05T09:12:39.153Z,77.06
2023-01-05T09:15:12.289Z,76.92
2023-01-05T09:17:46.534Z,76.67
2023-01-05T09:20:19.464Z,76.86
2023-01-05T09:22:52.065Z,76.93
2023-01-05T09:25:24.790Z,77.54
2023-01-05T09:27:57.678Z,77.19
2023-01-05T09:30:36.348Z,76.54
2023-01-05T09:33:16.308Z,76.91
2023-01-05T09:35:55.032Z,76.92
2023-01-05T09:38:27.918Z,77.24
2023-01-05T09:41:06.676Z,76.89
2023-01-05T09:43:42.729Z,76.92
2023-01-05T09:46:19.190Z,76.70
2023-01-05T09:48:56.467Z,77.03
2023-01-05T09:51:30.783Z,76.93
2023-01-05T09:54:04.069Z,77.45
2023-01-05T09:57:08.629Z,77.61
2023-01-05T09:59:36.223Z,77.78
2023-01-05T10:02:18.594Z,78.06
2023-01-05T10:04:54.335Z,77.80
2023-01-05T10:07:38.340Z,77.94
2023-01-05T10:10:30.504Z,77.31
2023-01-05T10:13:06.853Z,77.47
2023-01-05T10:15:47.098Z,77.21
2023-01-05T10:18:23.656Z,77.46
2023-01-05T10:21:07.433Z,77.76
2023-01-05T10:23:52.246Z,77.53
2023-01-05T10:26:39.846Z,77.62
2023-01-05T10:29:26.383Z,77.41
2023-01-05T10:32:12.380Z,77.32
2023-01-05T10:34:57.373Z,77.27
2023-01-05T10:37:57.666Z,77.47
2023-01-05T10:40:42.263Z,76.61
2023-01-05T10:43:30.583Z,77.36
2023-01-05T10:46:32.115Z,76.44
2023-01-05T10:48:57.014Z,76.05
2023-01-05T10:51:34.544Z,76.45
2023-01-05T10:54:21.600Z,76.18
2023-01-05T10:56:54.388Z,77.40
2023-01-05T10:59:27.192Z,76.97
2023-01-05T11:02:00.560Z,76.89
2023-01-05T11:04:35.292Z,76.73
2023-01-05T11:07:08.979Z,76.22
2023-01-05T11:09:46.090Z,76.42
2023-01-05T11:12:21.106Z,77.80
2023-01-05T11:14:58.811Z,76.40
2023-01-05T11:17:39.920Z,76.44
2023-01-05T11:20:18.175Z,76.17
2023-01-05T11:22:51.793Z,76.19
2023-01-05T11:25:29.072Z,77.54
2023-01-05T11:28:12.124Z,77.15
2023-01-05T11:30:59.122Z,77.22
2023-01-05T11:33:35.941Z,76.42
2023-01-05T11:36:09.127Z,76.75
2023-01-05T11:38:42.067Z,76.44
2023-01-05T11:41:17.313Z,76.56
2023-01-05T11:43:51.389Z,75.85
2023-01-05T11:46:24.348Z,76.60
2023-01-05T11:48:58.352Z,76.03
2023-01-05T11:51:35.527Z,76.27
2023-01-05T11:54:29.957Z,76.26
2023-01-05T11:57:18.447Z,75.88
2023-01-05T11:59:55.852Z,76.47
2023-01-05T12:03:02.310Z,76.13
2023-01-05T12:05:45.675Z,75.79
2023-01-05T12:08:24.582Z,75.66
2023-01-05T12:11:11.120Z,76.46
2023-01-05T12:14:02.582Z,76.22
2023-01-05T12:16:46.374Z,75.48
2023-01-05T12:19:55.916Z,76.76
2023-01-05T12:23:06.052Z,77.02
2023-01-05T12:25:51.176Z,76.22
2023-01-05T12:28:44.582Z,76.33
2023-01-05T12:34:44.377Z,76.45
2023-01-05T12:37:31.754Z,76.48
2023-01-05T12:40:26.126Z,76.90
2023-01-05T12:43:03.059Z,76.72
2023-01-05T12:46:05.017Z,76.29
2023-01-05T12:48:46.066Z,77.46
2023-01-05T12:51:23.516Z,76.82
2023-01-05T12:54:02.389Z,76.09
2023-01-05T12:56:39.399Z,75.94
2023-01-05T12:59:21.663Z,76.57
2023-01-05T13:02:04.935Z,76.77
2023-01-05T13:04:50.385Z,76.87
2023-01-05T13:07:30.168Z,76.42
2023-01-05T13:10:06.639Z,76.68
2023-01-05T13:12:41.890Z,76.10
2023-01-05T13:15:19.415Z,75.99
2023-01-05T13:17:55.721Z,75.68
2023-01-05T13:20:38.056Z,76.37
2023-01-05T13:23:22.432Z,76.19
2023-01-05T13:25:59.594Z,75.55
2023-01-05T13:28:34.766Z,75.53
2023-01-05T13:31:28.924Z,76.42
2023-01-05T13:34:22.108Z,77.52
2023-01-05T13:37:28.482Z,77.68
2023-01-05T13:40:24.167Z,76.94
2023-01-05T13:43:10.855Z,77.86
2023-01-05T13:46:31.550Z,77.17
2023-01-05T13:49:22.516Z,77.55
2023-01-05T13:51:57.902Z,77.36
2023-01-05T13:54:49.435Z,77.15
2023-01-05T13:57:31.744Z,76.91
2023-01-05T14:00:12.297Z,77.39
2023-01-05T14:02:47.246Z,77.96
2023-01-05T14:05:25.829Z,77.52
2023-01-05T14:08:02.408Z,77.07
2023-01-05T14:10:35.486Z,77.39
2023-01-05T14:13:31.714Z,76.88
2023-01-05T14:16:51.261Z,78.15
2023-01-05T14:19:52.272Z,77.83
2023-01-05T14:22:36.352Z,77.24
2023-01-05T14:25:46.369Z,77.35
2023-01-05T14:28:43.686Z,77.45
2023-01-05T14:31:52.419Z,77.28
2023-01-05T14:34:27.628Z,77.17
2023-01-05T14:37:03.989Z,78.07
2023-01-05T14:39:43.454Z,78.15
2023-01-05T14:42:21.859Z,78.16
2023-01-05T14:45:02.479Z,77.56
2023-01-05T14:47:40.833Z,77.75
2023-01-05T14:50:29.803Z,77.74
2023-01-05T14:53:07.245Z,78.06
2023-01-05T14:55:41.943Z,78.21
2023-01-05T14:58:16.894Z,78.28
2023-01-05T15:00:57.750Z,77.51
2023-01-05T15:03:38.752Z,77.77
2023-01-05T15:06:16.861Z,77.88
2023-01-05T15:09:10.009Z,78.25
2023-01-05T15:12:15.272Z,77.91
2023-01-05T15:15:01.845Z,77.76
2023-01-05T15:18:02.892Z,78.02
2023-01-05T15:21:25.133Z,78.10
2023-01-05T15:24:22.331Z,78.59
2023-01-05T15:27:23.497Z,78.51
2023-01-05T15:30:16.431Z,78.53
2023-01-05T15:32:55.567Z,78.24
2023-01-05T15:35:37.057Z,78.24
2023-01-05T15:38:21.929Z,79.00
2023-01-05T15:41:02.766Z,78.63
2023-01-05T15:43:41.667Z,78.76
2023-01-05T15:46:20.945Z,78.65
2023-01-05T15:48:55.970Z,78.32
2023-01-05T15:51:33.178Z,78.36
2023-01-05T15:54:06.769Z,78.38
2023-01-05T15:56:41.237Z,78.62
2023-01-05T15:59:23.723Z,78.55
2023-01-05T16:01:57.185Z,78.37
2023-01-05T16:04:30.249Z,78.57
2023-01-05T16:07:06.374Z,78.92
2023-01-05T16:09:43.350Z,78.87
2023-01-05T16:12:24.310Z,79.05
2023-01-05T16:15:01.770Z,78.65
2023-01-05T16:17:37.304Z,78.54
2023-01-05T16:20:15.978Z,78.62
2023-01-05T16:23:00.943Z,78.74
2023-01-05T16:25:43.711Z,79.68
2023-01-05T16:28:20.627Z,79.00
2023-01-05T16:30:55.049Z,78.71
2023-01-05T16:33:34.765Z,78.60
2023-01-05T16:36:14.018Z,78.59
2023-01-05T16:38:48.835Z,78.87
2023-01-05T16:41:24.537Z,79.24
2023-01-05T16:43:59.507Z,78.86
2023-01-05T16:46:35.653Z,78.96
2023-01-05T16:49:29.369Z,78.71
2023-01-05T16:52:04.038Z,79.28
2023-01-05T16:54:41.631Z,78.97
2023-01-05T16:57:33.648Z,78.67
2023-01-05T17:00:36.872Z,78.92
2023-01-05T17:03:31.569Z,79.04
2023-01-05T17:06:07.364Z,78.83
2023-01-05T17:08:40.667Z,78.93
2023-01-05T17:11:13.585Z,79.07
2023-01-05T17:13:48.331Z,78.85
2023-01-05T17:16:22.920Z,79.43
2023-01-05T17:18:56.459Z,79.02
2023-01-05T17:21:32.107Z,79.01
2023-01-05T17:24:06.412Z,79.41
2023-01-05T17:26:42.720Z,79.19
2023-01-05T17:29:20.452Z,78.80
2023-01-05T17:31:55.366Z,78.73
2023-01-05T17:34:28.264Z,78.73
2023-01-05T17:37:02.129Z,78.84
2023-01-05T17:39:35.012Z,78.33
2023-01-05T17:42:25.146Z,78.58
2023-01-05T17:44:58.371Z,78.52
2023-01-05T17:50:09.856Z,78.41
2023-01-05T17:52:42.649Z,78.29
2023-01-05T17:55:15.587Z,78.32
2023-01-05T17:57:50.438Z,78.33
2023-01-05T18:00:28.249Z,78.62
2023-01-05T18:03:04.668Z,78.36
2023-01-05T18:05:37.754Z,78.40
2023-01-05T18:08:11.871Z,78.28
2023-01-05T18:11:09.191Z,78.17
2023-01-05T18:16:15.625Z,78.04
2023-01-05T18:18:50.224Z,78.02
2023-01-05T18:21:25.735Z,78.13
2023-01-05T18:23:58.823Z,78.13
2023-01-05T18:26:31.852Z,78.23
2023-01-05T18:29:04.599Z,78.02
2023-01-05T18:31:40.159Z,77.81
2023-01-05T18:34:16.378Z,77.88
2023-01-05T18:36:55.616Z,78.20
2023-01-05T18:39:34.779Z,78.10
2023-01-05T18:42:07.724Z,77.92
2023-01-05T18:44:40.479Z,78.27
2023-01-05T18:47:13.843Z,78.32
2023-01-05T18:49:53.257Z,78.10
2023-01-05T18:52:26.370Z,78.35
2023-01-05T18:55:01.372Z,78.33
2023-01-05T18:57:36.239Z,78.49
2023-01-05T19:00:10.273Z,78.02
2023-01-05T19:02:43.290Z,78.15
2023-01-05T19:05:19.590Z,78.07
2023-01-05T19:07:53.492Z,77.84
2023-01-05T19:10:27.117Z,78.17
2023-01-05T19:13:00.420Z,78.11
2023-01-05T19:15:33.627Z,78.27
2023-01-05T19:18:07.104Z,78.19
2023-01-05T19:20:41.448Z,78.36
2023-01-05T19:23:14.697Z,78.35
2023-01-05T19:25:47.944Z,77.90
2023-01-05T19:28:21.221Z,78.34
2023-01-05T19:31:05.076Z,78.44
2023-01-05T19:33:40.406Z,77.70
2023-01-05T19:36:17.677Z,78.61
2023-01-05T19:38:51.134Z,78.36
2023-01-05T19:41:25.789Z,78.17
2023-01-05T19:43:59.603Z,78.18
2023-01-05T19:46:34.987Z,78.21
2023-01-05T19:49:08.646Z,78.55
2023-01-05T19:51:43.235Z,78.47
2023-01-05T19:54:19.089Z,78.15
2023-01-05T19:56:53.054Z,78.27
2023-01-05T19:59:34.079Z,78.60
2023-01-05T20:02:09.682Z,78.26
2023-01-05T20:04:46.762Z,78.32
2023-01-05T20:07:21.261Z,78.37
2023-01-05T20:09:54.476Z,78.55
2023-01-05T20:12:27.804Z,78.52
2023-01-05T20:15:03.320Z,78.35
2023-01-05T20:17:48.947Z,78.71
2023-01-05T20:20:22.596Z,78.66
2023-01-05T20:22:59.911Z,78.64
2023-01-05T20:25:34.682Z,78.65
2023-01-05T20:28:07.775Z,78.54
2023-01-05T20:30:40.576Z,78.72
2023-01-05T20:33:13.898Z,78.87
2023-01-05T20:35:46.795Z,78.68
2023-01-05T20:38:21.305Z,78.74
2023-01-05T20:40:54.459Z,78.79
2023-01-05T20:43:27.932Z,78.40
2023-01-05T20:46:00.827Z,78.50
2023-01-05T20:48:35.668Z,78.72
2023-01-05T20:51:21.484Z,78.89
2023-01-05T20:53:59.755Z,78.97
2023-01-05T20:56:38.505Z,78.94
2023-01-05T20:59:14.610Z,78.66
2023-01-05T21:01:48.083Z,78.59
2023-01-05T21:04:22.454Z,78.59
2023-01-05T21:06:59.332Z,78.88
2023-01-05T21:09:34.480Z,78.39
2023-01-05T21:12:07.548Z,78.58
2023-01-05T21:14:40.535Z,78.53
2023-01-05T21:17:13.395Z,78.42
2023-01-05T21:19:49.230Z,78.52
2023-01-05T21:22:22.106Z,78.31
2023-01-05T21:24:56.295Z,78.68
2023-01-05T21:27:29.340Z,78.69
2023-01-05T21:30:02.233Z,78.68
2023-01-05T21:32:35.386Z,78.86
2023-01-05T21:35:09.308Z,78.77
2023-01-05T21:37:42.372Z,78.77
2023-01-05T21:40:17.248Z,78.48
2023-01-05T21:42:50.365Z,78.40
2023-01-05T21:45:23.413Z,78.44
2023-01-05T21:47:57.779Z,78.23
2023-01-05T21:50:53.661Z,78.64
2023-01-05T21:53:44.391Z,78.76
2023-01-05T21:56:27.896Z,79.16
2023-01-05T21:59:02.851Z,78.82
2023-01-05T22:01:38.660Z,78.78
2023-01-05T22:04:12.951Z,78.98
2023-01-05T22:06:46.314Z,78.88
2023-01-05T22:09:19.443Z,78.82
2023-01-05T22:11:53.497Z,78.48
2023-01-05T22:14:26.480Z,78.57
2023-01-05T22:16:59.708Z,78.58
2023-01-05T22:19:32.942Z,79.18
2023-01-05T22:22:08.330Z,78.64
2023-01-05T22:24:41.489Z,78.74
2023-01-05T22:27:16.365Z,78.46
2023-01-05T22:29:49.452Z,78.36
2023-01-05T22:32:23.004Z,78.21
2023-01-05T22:34:55.970Z,78.56
2023-01-05T22:37:31.061Z,78.29
2023-01-05T22:40:10.762Z,78.39
2023-01-05T22:42:45.425Z,78.43
2023-01-05T22:45:18.447Z,78.65
2023-01-05T22:47:51.145Z,78.34
2023-01-05T22:50:24.183Z,78.50
2023-01-05T22:52:56.804Z,78.41
2023-01-05T22:55:30.351Z,78.19
2023-01-05T22:58:05.521Z,78.14
2023-01-05T23:00:38.580Z,78.19
2023-01-05T23:03:11.693Z,78.00
2023-01-05T23:05:44.636Z,78.14
2023-01-05T23:08:17.441Z,77.82
2023-01-05T23:10:50.495Z,77.87
2023-01-05T23:13:24.693Z,77.59
2023-01-05T23:15:58.131Z,77.26
2023-01-05T23:18:31.250Z,77.48
2023-01-05T23:21:07.052Z,77.26
2023-01-05T23:23:40.645Z,77.54
2023-01-05T23:26:15.239Z,77.38
2023-01-05T23:28:49.622Z,77.41
2023-01-05T23:31:22.697Z,77.29
2023-01-05T23:33:55.672Z,77.71
2023-01-05T23:36:31.296Z,77.67
2023-01-05T23:39:04.497Z,77.48
2023-01-05T23:41:37.430Z,77.84
2023-01-05T23:44:14.525Z,77.66
2023-01-05T23:46:47.516Z,77.73
2023-01-05T23:49:20.421Z,77.51
2023-01-05T23:51:53.622Z,77.94
2023-01-05T23:54:29.677Z,77.46
2023-01-05T23:57:03.273Z,77.40
2023-01-05T23:59:37.572Z,77.61
